Time;durP1;ratioP1;P1;durP2;ratioP2;P2;SDS_P1;SDS_P2;PMS_P1;PMS_P2;Temp;Humidity;BMP_temperature;BMP_pressure;BME280_temperature;BME280_humidity;BME280_pressure;Samples;Min_cycle;Max_cycle;Signal;HPM_P1;HPM_P2
2022/03/19 00:00:26;;;;;;;6.03;3.55;;;;;;;8.62;66.45;102347.44;5000596;28;20129;-88
2022/03/19 00:02:52;;;;;;;8.48;3.70;;;;;;;8.63;66.57;102335.84;4999857;28;20029;-88
2022/03/19 00:05:17;;;;;;;5.53;3.60;;;;;;;8.55;66.18;102342.44;5001686;28;20091;-88
2022/03/19 00:07:43;;;;;;;6.95;3.67;;;;;;;8.53;66.47;102345.16;4999723;28;20116;-88
2022/03/19 00:10:09;;;;;;;6.78;3.85;;;;;;;8.55;66.68;102340.63;5008996;28;20228;-88
2022/03/19 00:12:39;;;;;;;6.70;3.55;;;;;;;8.54;66.46;102340.72;5018377;28;20501;-89
2022/03/19 00:15:05;;;;;;;6.05;3.50;;;;;;;8.46;65.97;102339.22;5000241;28;20116;-89
2022/03/19 00:17:31;;;;;;;4.97;3.70;;;;;;;8.46;66.65;102344.53;5014019;28;20484;-89
2022/03/19 00:19:56;;;;;;;6.70;3.40;;;;;;;8.56;66.73;102342.38;5000504;28;20044;-89
2022/03/19 00:22:22;;;;;;;6.93;3.50;;;;;;;8.54;66.26;102340.72;5000519;28;20064;-89
2022/03/19 00:24:48;;;;;;;4.50;3.47;;;;;;;8.57;66.96;102337.91;5001130;28;20061;-89
2022/03/19 00:27:13;;;;;;;9.68;3.67;;;;;;;8.51;66.37;102339.91;5000184;28;20208;-89
2022/03/19 00:29:39;;;;;;;6.63;3.47;;;;;;;8.51;66.74;102334.56;5015834;28;20079;-88
2022/03/19 00:32:04;;;;;;;6.75;3.53;;;;;;;8.49;65.96;102331.06;4998424;28;20030;-89
2022/03/19 00:34:31;;;;;;;8.10;3.70;;;;;;;8.43;66.30;102331.34;5002840;28;20072;-89
2022/03/19 00:36:57;;;;;;;7.70;3.85;;;;;;;8.42;65.96;102331.41;4999169;28;20479;-89
2022/03/19 00:39:32;;;;;;;8.95;3.78;;;;;;;8.35;65.74;102332.59;5016666;28;20033;-88
2022/03/19 00:41:58;;;;;;;7.00;3.97;;;;;;;8.39;66.29;102334.19;5016948;28;20403;-89
2022/03/19 00:44:23;;;;;;;7.32;3.92;;;;;;;8.35;65.64;102336.13;5000078;28;20025;-88
2022/03/19 00:46:49;;;;;;;4.78;3.33;;;;;;;8.36;65.44;102345.00;5000857;28;20506;-89
2022/03/19 00:49:14;;;;;;;6.95;3.78;;;;;;;8.39;65.96;102336.88;4998777;28;20434;-89
2022/03/19 00:51:40;;;;;;;7.95;3.80;;;;;;;8.38;65.57;102343.13;5000832;28;20040;-88
2022/03/19 00:54:12;;;;;;;6.85;3.42;;;;;;;8.40;65.94;102328.81;4998885;28;20049;-89
2022/03/19 00:56:38;;;;;;;8.45;3.70;;;;;;;8.47;66.17;102329.41;5008695;28;20091;-88
2022/03/19 00:59:04;;;;;;;6.03;3.50;;;;;;;8.42;65.58;102326.94;5015749;28;20535;-89
2022/03/19 01:01:29;;;;;;;7.28;3.72;;;;;;;8.27;65.38;102327.56;5001460;28;20032;-87
2022/03/19 01:03:55;;;;;;;7.22;3.83;;;;;;;8.33;65.53;102324.66;5000185;28;20065;-88
2022/03/19 01:06:20;;;;;;;7.70;3.83;;;;;;;8.21;64.99;102320.69;4998179;28;20513;-89
2022/03/19 01:08:46;;;;;;;7.20;3.90;;;;;;;8.20;65.02;102324.28;5000414;28;20048;-88
2022/03/19 01:11:11;;;;;;;7.20;3.67;;;;;;;8.18;65.53;102315.50;5018004;28;20072;-89
2022/03/19 01:13:36;;;;;;;7.53;4.00;;;;;;;8.23;65.29;102317.09;5016166;28;20033;-89
2022/03/19 01:16:02;;;;;;;7.53;3.63;;;;;;;8.16;64.93;102309.34;4999120;28;20509;-89
2022/03/19 01:18:28;;;;;;;6.20;3.53;;;;;;;8.18;65.27;102311.97;4997039;28;20036;-88
2022/03/19 01:20:54;;;;;;;7.47;4.00;;;;;;;8.15;64.75;102309.44;5008003;28;20061;-89
2022/03/19 01:23:19;;;;;;;5.88;3.45;;;;;;;8.26;64.78;102304.50;5015886;28;20410;-89
2022/03/19 01:25:44;;;;;;;6.50;3.45;;;;;;;8.25;64.62;102301.91;5000752;28;20033;-88
2022/03/19 01:28:10;;;;;;;6.50;3.50;;;;;;;8.34;65.27;102293.53;4998735;28;20907;-89
2022/03/19 01:30:35;;;;;;;7.38;3.58;;;;;;;8.39;65.64;102296.88;5017288;28;20029;-89
2022/03/19 01:33:00;;;;;;;7.10;3.38;;;;;;;8.42;64.87;102294.94;4997847;28;20057;-89
2022/03/19 01:35:26;;;;;;;8.40;3.60;;;;;;;8.22;63.96;102292.25;5016079;28;20036;-88
2022/03/19 01:37:51;;;;;;;7.75;3.42;;;;;;;8.17;64.33;102291.56;4999164;28;20068;-88
2022/03/19 01:40:18;;;;;;;7.50;3.40;;;;;;;8.09;64.56;102294.56;5000154;28;20087;-89
2022/03/19 01:42:51;;;;;;;5.60;3.70;;;;;;;8.03;64.42;102284.13;5015204;28;20045;-89
2022/03/19 01:45:22;;;;;;;8.30;3.63;;;;;;;8.02;64.89;102286.84;5008162;28;20087;-89
2022/03/19 01:47:48;;;;;;;7.32;3.50;;;;;;;7.95;64.65;102288.91;5007506;28;20022;-89
2022/03/19 01:50:30;;;;;;;6.88;3.65;;;;;;;7.94;64.31;102286.31;5008269;28;20087;-89
2022/03/19 01:52:56;;;;;;;4.88;3.67;;;;;;;7.93;64.63;102287.25;4999019;28;20046;-89
2022/03/19 01:55:24;;;;;;;7.43;3.50;;;;;;;7.90;64.59;102278.44;5023927;28;20049;-89
2022/03/19 01:57:49;;;;;;;5.60;3.67;;;;;;;7.95;64.74;102286.25;4998597;28;20034;-89
2022/03/19 02:00:22;;;;;;;6.90;3.60;;;;;;;8.02;64.49;102274.41;5016629;28;20034;-88
2022/03/19 02:02:48;;;;;;;6.22;4.25;;;;;;;8.01;64.75;102278.00;5002615;28;20552;-89
2022/03/19 02:05:18;;;;;;;6.15;3.75;;;;;;;8.00;64.53;102270.06;5003660;28;20052;-89
2022/03/19 02:07:45;;;;;;;8.00;4.00;;;;;;;7.89;64.84;102275.84;5035751;28;20037;-88
2022/03/19 02:10:13;;;;;;;5.72;3.70;;;;;;;7.85;64.82;102271.59;5011983;28;20115;-89
2022/03/19 02:12:39;;;;;;;6.60;3.70;;;;;;;7.83;65.38;102274.31;5002816;28;20104;-88
2022/03/19 02:15:05;;;;;;;7.10;4.00;;;;;;;7.89;65.14;102268.72;5019002;28;20726;-89
2022/03/19 02:17:31;;;;;;;7.15;4.07;;;;;;;7.97;65.73;102262.22;5011119;28;20033;-88
2022/03/19 02:19:57;;;;;;;6.15;3.50;;;;;;;7.94;65.33;102257.88;5002950;28;20495;-88
2022/03/19 02:22:26;;;;;;;7.40;4.03;;;;;;;7.92;64.75;102254.41;5002229;28;20681;-89
2022/03/19 02:27:37;;;;;;;6.18;3.88;;;;;;;7.86;65.18;102255.53;5019518;28;20052;-90
2022/03/19 02:30:04;;;;;;;7.35;3.97;;;;;;;7.83;65.15;102253.00;5008969;28;20479;-88
2022/03/19 02:32:30;;;;;;;8.18;4.00;;;;;;;7.82;65.37;102245.06;5001383;28;20025;-88
2022/03/19 02:34:55;;;;;;;7.82;4.00;;;;;;;7.77;65.38;102245.25;5019119;28;20025;-89
2022/03/19 02:37:21;;;;;;;7.85;4.20;;;;;;;7.68;65.48;102237.66;5001268;28;20487;-88
2022/03/19 02:39:47;;;;;;;7.43;4.28;;;;;;;7.72;66.13;102238.41;5001737;28;20517;-89
2022/03/19 02:42:16;;;;;;;7.13;4.00;;;;;;;7.77;65.76;102239.06;5001891;28;20486;-89
2022/03/19 02:44:42;;;;;;;8.85;4.13;;;;;;;7.76;65.29;102237.34;5002507;28;20037;-88
2022/03/19 02:47:07;;;;;;;11.73;4.35;;;;;;;7.77;65.82;102231.09;5000752;28;20708;-88
2022/03/19 02:49:33;;;;;;;8.20;4.07;;;;;;;7.84;65.92;102233.44;5016682;28;20048;-89
2022/03/19 02:51:58;;;;;;;7.80;3.95;;;;;;;7.81;65.80;102241.53;5018248;28;20044;-89
2022/03/19 02:54:26;;;;;;;9.30;4.15;;;;;;;7.75;66.07;102235.59;5016965;28;20153;-88
2022/03/19 02:56:53;;;;;;;6.25;4.10;;;;;;;7.71;65.48;102234.00;5010129;28;20034;-89
2022/03/19 02:59:23;;;;;;;9.63;4.07;;;;;;;7.70;66.17;102232.28;5036055;28;20113;-89
2022/03/19 03:01:51;;;;;;;6.78;3.92;;;;;;;7.60;65.93;102236.25;5018385;28;20029;-89
2022/03/19 03:04:16;;;;;;;7.32;3.95;;;;;;;7.62;66.04;102239.72;5001900;28;20028;-89
2022/03/19 03:06:44;;;;;;;7.43;4.45;;;;;;;7.62;66.43;102237.03;5002393;28;20034;-89
2022/03/19 03:09:10;;;;;;;6.55;3.90;;;;;;;7.54;65.89;102235.53;5017539;28;20029;-88
2022/03/19 03:11:36;;;;;;;9.00;3.85;;;;;;;7.63;66.99;102230.78;5034201;28;20033;-89
2022/03/19 03:14:01;;;;;;;7.78;4.25;;;;;;;7.54;65.97;102232.00;5025508;28;20033;-88
2022/03/19 03:16:27;;;;;;;10.15;4.28;;;;;;;7.53;66.24;102232.94;5002114;28;20030;-88
2022/03/19 03:18:54;;;;;;;9.35;4.53;;;;;;;7.51;66.46;102227.66;5018899;28;20033;-89
2022/03/19 03:21:20;;;;;;;6.13;4.30;;;;;;;7.55;66.48;102231.06;5001128;28;20087;-88
2022/03/19 03:23:45;;;;;;;8.00;4.30;;;;;;;7.61;66.92;102230.84;5000844;28;20030;-88
2022/03/19 03:26:11;;;;;;;7.28;3.90;;;;;;;7.63;66.44;102229.00;5009357;28;20093;-89
2022/03/19 03:28:36;;;;;;;7.97;4.32;;;;;;;7.57;66.74;102224.78;4999175;28;20040;-89
2022/03/19 03:31:02;;;;;;;7.97;4.35;;;;;;;7.60;66.90;102226.47;5000587;28;20034;-89
2022/03/19 03:33:27;;;;;;;9.10;4.75;;;;;;;7.48;66.59;102226.94;5000335;28;20033;-88
2022/03/19 03:35:53;;;;;;;7.55;4.40;;;;;;;7.38;66.98;102231.75;5000510;28;20687;-89
2022/03/19 03:38:19;;;;;;;6.85;3.97;;;;;;;7.39;67.34;102224.66;5000093;28;20121;-88
2022/03/19 03:40:44;;;;;;;8.80;4.22;;;;;;;7.35;67.35;102223.91;5017979;28;20033;-88
2022/03/19 03:43:10;;;;;;;8.43;4.25;;;;;;;7.29;66.94;102221.50;5001516;28;20048;-89
2022/03/19 03:45:35;;;;;;;7.80;3.97;;;;;;;7.36;67.62;102224.78;4999423;28;20053;-88
2022/03/19 03:48:01;;;;;;;10.75;4.18;;;;;;;7.31;67.54;102230.28;5001160;28;20364;-89
2022/03/19 03:50:27;;;;;;;6.70;4.18;;;;;;;7.30;67.75;102219.69;4999959;28;20087;-88
2022/03/19 03:52:52;;;;;;;6.20;4.07;;;;;;;7.42;67.78;102227.19;4999593;28;20076;-88
2022/03/19 03:55:18;;;;;;;6.85;4.45;;;;;;;7.39;67.74;102222.84;4999809;28;20045;-89
2022/03/19 03:57:43;;;;;;;8.07;4.47;;;;;;;7.42;67.54;102225.38;5001568;28;20119;-87
2022/03/19 04:00:10;;;;;;;10.10;4.22;;;;;;;7.32;67.30;102220.50;4999643;28;20057;-88
2022/03/19 04:02:36;;;;;;;7.35;3.80;;;;;;;7.26;67.86;102213.63;4998951;28;20109;-88
2022/03/19 04:05:02;;;;;;;6.55;4.15;;;;;;;7.34;67.79;102210.66;5018043;28;20025;-88
2022/03/19 04:07:27;;;;;;;6.47;3.83;;;;;;;7.27;67.75;102204.72;5015598;28;20025;-88
2022/03/19 04:09:53;;;;;;;9.90;4.03;;;;;;;7.23;67.83;102209.28;5001252;28;21013;-88
2022/03/19 04:12:19;;;;;;;8.13;4.43;;;;;;;7.22;68.40;102206.69;5001767;28;20476;-88
2022/03/19 04:14:45;;;;;;;5.57;3.85;;;;;;;7.23;68.10;102211.94;5000442;28;20554;-89
2022/03/19 04:17:10;;;;;;;6.97;4.22;;;;;;;7.32;67.96;102216.03;5017314;28;20021;-89
2022/03/19 04:19:35;;;;;;;7.28;4.22;;;;;;;7.27;67.65;102204.72;5017479;28;20045;-89
2022/03/19 04:22:01;;;;;;;9.65;4.60;;;;;;;7.24;67.82;102208.38;5000371;28;20092;-89
2022/03/19 04:24:26;;;;;;;7.60;4.15;;;;;;;7.22;67.90;102207.56;4999579;28;20065;-89
2022/03/19 04:26:52;;;;;;;6.85;4.00;;;;;;;7.19;68.33;102207.69;5016391;28;20026;-88
2022/03/19 04:29:17;;;;;;;9.43;4.90;;;;;;;7.23;68.15;102217.28;5000585;28;20385;-89
2022/03/19 04:31:43;;;;;;;9.27;4.57;;;;;;;7.24;68.44;102210.16;5016684;28;20038;-88
2022/03/19 04:34:08;;;;;;;8.45;4.25;;;;;;;7.25;68.01;102206.56;5015058;28;20033;-88
2022/03/19 04:36:37;;;;;;;8.20;4.28;;;;;;;7.24;67.97;102210.16;5017165;28;20103;-89
2022/03/19 04:39:05;;;;;;;5.75;4.07;;;;;;;7.25;68.44;102206.56;5000581;28;20483;-88
2022/03/19 04:41:31;;;;;;;6.15;4.13;;;;;;;7.20;68.00;102206.75;5016548;28;20051;-89
2022/03/19 04:43:56;;;;;;;8.98;4.63;;;;;;;7.13;68.32;102210.59;4999255;28;20041;-88
2022/03/19 04:46:21;;;;;;;8.27;4.32;;;;;;;7.09;68.27;102206.28;5015143;28;20049;-89
2022/03/19 04:48:47;;;;;;;8.60;4.28;;;;;;;7.10;68.41;102200.06;5016388;28;20029;-89
2022/03/19 04:51:16;;;;;;;9.82;4.38;;;;;;;7.10;68.87;102202.72;4999690;28;20033;-88
2022/03/19 04:53:42;;;;;;;7.47;4.30;;;;;;;7.03;68.74;102201.19;5007783;28;20403;-89
2022/03/19 04:56:07;;;;;;;9.70;4.47;;;;;;;7.10;68.49;102200.06;4999490;28;20030;-89
2022/03/19 04:58:33;;;;;;;7.32;4.13;;;;;;;7.06;68.66;102200.22;4998672;28;20120;-89
2022/03/19 05:00:59;;;;;;;7.93;4.32;;;;;;;7.01;68.61;102197.75;5015259;28;20033;-88
2022/03/19 05:03:25;;;;;;;6.43;3.92;;;;;;;7.02;68.67;102195.94;4998897;28;20030;-88
2022/03/19 05:05:50;;;;;;;6.72;4.40;;;;;;;6.91;68.48;102199.03;4999410;28;20513;-89
2022/03/19 05:08:17;;;;;;;7.22;3.92;;;;;;;6.92;68.99;102192.78;4998871;28;20061;-89
2022/03/19 05:13:26;;;;;;;7.47;4.30;;;;;;;6.79;68.71;102200.38;5015308;28;20040;-89
2022/03/19 05:15:52;;;;;;;8.00;4.38;;;;;;;6.73;68.77;102200.59;4999396;28;20033;-89
2022/03/19 05:18:17;;;;;;;7.07;4.32;;;;;;;6.83;68.60;102201.13;5016362;28;20652;-89
2022/03/19 05:20:43;;;;;;;6.05;4.05;;;;;;;6.76;68.07;102205.81;5006189;28;20040;-88
2022/03/19 05:23:08;;;;;;;6.72;3.95;;;;;;;6.86;68.90;102203.66;5015933;28;20423;-88
2022/03/19 05:25:34;;;;;;;6.55;3.85;;;;;;;6.81;68.73;102206.50;4999410;28;20048;-88
2022/03/19 05:27:59;;;;;;;7.65;4.25;;;;;;;6.99;69.25;102199.59;4998916;28;20036;-89
2022/03/19 05:30:24;;;;;;;5.57;3.65;;;;;;;7.02;69.91;102206.59;4999561;28;20076;-89
2022/03/19 05:32:50;;;;;;;7.47;4.13;;;;;;;6.89;68.15;102209.72;4998969;28;20082;-89
2022/03/19 05:35:16;;;;;;;7.53;4.07;;;;;;;6.95;68.84;102208.63;4999949;28;20029;-89
2022/03/19 05:37:42;;;;;;;10.93;4.40;;;;;;;6.78;68.31;102211.94;5018717;28;20029;-89
2022/03/19 05:40:09;;;;;;;6.95;4.15;;;;;;;6.85;68.59;102208.09;5005010;28;20060;-89
2022/03/19 05:42:34;;;;;;;6.40;4.13;;;;;;;6.75;68.40;102200.53;5003642;28;20029;-89
2022/03/19 05:45:00;;;;;;;6.22;4.30;;;;;;;6.71;68.31;102204.25;5018693;28;20079;-88
2022/03/19 05:47:25;;;;;;;7.28;4.07;;;;;;;6.62;68.39;102208.97;5002530;28;20033;-89
2022/03/19 05:49:51;;;;;;;8.30;3.97;;;;;;;6.68;68.68;102207.03;5003993;28;20040;-88
2022/03/19 05:52:17;;;;;;;7.28;4.25;;;;;;;6.69;68.53;102206.09;5001430;28;20120;-89
2022/03/19 05:54:42;;;;;;;6.22;4.20;;;;;;;6.80;69.06;102209.22;5002354;28;20049;-88
2022/03/19 05:57:08;;;;;;;8.52;4.07;;;;;;;6.80;68.41;102212.72;5003104;28;20441;-89
2022/03/19 05:59:33;;;;;;;7.57;3.90;;;;;;;6.78;68.53;102209.25;5003482;28;20083;-89
2022/03/19 06:01:59;;;;;;;8.63;4.35;;;;;;;6.72;68.59;102212.16;5003180;28;20049;-89
2022/03/19 06:04:24;;;;;;;8.77;4.63;;;;;;;6.62;68.64;102218.72;5018515;28;21005;-89
2022/03/19 06:06:50;;;;;;;6.50;4.05;;;;;;;6.55;69.24;102215.41;5001398;28;20036;-89
2022/03/19 06:09:15;;;;;;;6.93;4.40;;;;;;;6.65;69.02;102217.75;5001713;28;20033;-88
2022/03/19 06:11:42;;;;;;;6.80;4.28;;;;;;;6.63;68.93;102223.13;5002710;28;20033;-87
2022/03/19 06:14:07;;;;;;;7.18;4.50;;;;;;;6.78;69.59;102227.88;5019973;28;20025;-89
2022/03/19 06:16:32;;;;;;;8.95;4.28;;;;;;;6.71;68.72;102225.50;5002471;28;20065;-89
2022/03/19 06:18:58;;;;;;;8.13;4.97;;;;;;;6.74;68.90;102223.59;5003608;28;20033;-90
2022/03/19 06:21:23;;;;;;;9.15;4.55;;;;;;;6.78;69.22;102219.91;5002112;28;20038;-88
2022/03/19 06:23:52;;;;;;;8.55;4.30;;;;;;;6.73;69.15;102213.91;5002889;28;20057;-89
2022/03/19 06:26:19;;;;;;;6.93;4.30;;;;;;;6.74;69.66;102215.63;5002938;28;20045;-89
2022/03/19 06:28:45;;;;;;;6.85;4.30;;;;;;;6.94;69.60;102214.88;5002465;28;20056;-88
2022/03/19 06:31:11;;;;;;;10.40;4.47;;;;;;;6.88;69.62;102218.63;5021025;28;20135;-89
2022/03/19 06:33:39;;;;;;;7.38;4.10;;;;;;;6.95;69.74;102222.78;5002798;28;20592;-88
2022/03/19 06:38:48;;;;;;;8.95;4.38;;;;;;;6.85;69.89;102221.41;5016840;28;20040;-88
2022/03/19 06:41:14;;;;;;;7.93;4.47;;;;;;;6.82;69.75;102215.34;5000798;28;20029;-89
2022/03/19 06:43:39;;;;;;;7.60;4.00;;;;;;;6.81;69.79;102218.91;5002702;28;20037;-89
2022/03/19 06:46:08;;;;;;;9.77;3.97;;;;;;;7.04;71.21;102213.56;5002108;28;20032;-89
2022/03/19 06:48:35;;;;;;;11.03;4.67;;;;;;;7.05;70.36;102212.66;5016976;28;20030;-87
2022/03/19 06:51:01;;;;;;;5.95;3.97;;;;;;;7.07;70.74;102209.94;5002727;28;20272;-89
2022/03/19 06:53:26;;;;;;;10.43;4.40;;;;;;;7.04;70.55;102213.56;5001445;28;20050;-89
2022/03/19 06:55:52;;;;;;;7.97;3.95;;;;;;;6.89;70.08;102217.69;5017529;28;20064;-89
2022/03/19 06:58:20;;;;;;;8.80;4.05;;;;;;;6.97;70.62;102220.06;5018835;28;20033;-88
2022/03/19 07:00:46;;;;;;;8.07;4.00;;;;;;;6.96;70.34;102213.00;5015936;28;20036;-89
2022/03/19 07:03:12;;;;;;;10.93;4.32;;;;;;;6.99;70.58;102204.91;5001452;28;20045;-89
2022/03/19 07:05:37;;;;;;;9.40;4.35;;;;;;;7.02;70.63;102210.09;5002145;28;20411;-89
2022/03/19 07:08:03;;;;;;;10.63;4.28;;;;;;;7.02;71.00;102209.25;5016778;28;20036;-89
2022/03/19 07:10:28;;;;;;;8.73;4.20;;;;;;;6.99;70.70;102209.38;5000068;28;20025;-89
2022/03/19 07:12:55;;;;;;;8.13;3.90;;;;;;;7.05;70.54;102209.13;5015055;28;20460;-88
2022/03/19 07:15:28;;;;;;;9.73;4.50;;;;;;;7.00;70.42;102203.13;5009825;28;20185;-89
2022/03/19 07:17:54;;;;;;;10.18;4.07;;;;;;;7.03;70.68;102206.53;5016432;28;20053;-88
2022/03/19 07:20:19;;;;;;;9.13;3.97;;;;;;;7.10;71.52;102200.06;5019074;28;20109;-89
2022/03/19 07:22:51;;;;;;;8.95;4.30;;;;;;;7.22;71.53;102196.06;5000766;28;20120;-89
2022/03/19 07:25:18;;;;;;;5.75;3.75;;;;;;;7.27;71.45;102202.06;5018440;28;20037;-89
2022/03/19 07:27:43;;;;;;;6.55;4.10;;;;;;;7.26;71.06;102200.31;4998836;28;20022;-89
2022/03/19 07:30:40;;;;;;;8.18;4.18;;;;;;;7.24;71.18;102196.84;5017582;28;20087;-89
2022/03/19 07:33:06;;;;;;;7.57;3.90;;;;;;;7.28;71.43;102201.13;5015140;28;20026;-89
2022/03/19 07:35:32;;;;;;;9.80;4.22;;;;;;;7.32;71.28;102193.88;5002097;28;21065;-89
2022/03/19 07:38:02;;;;;;;6.50;3.83;;;;;;;7.36;71.57;102191.03;5015899;28;20057;-87
2022/03/19 07:43:13;;;;;;;7.80;3.78;;;;;;;7.42;71.26;102189.91;5025088;28;20119;-89
2022/03/19 07:45:40;;;;;;;7.10;3.90;;;;;;;7.45;71.76;102184.47;5017998;28;20387;-89
2022/03/19 07:48:05;;;;;;;9.98;4.40;;;;;;;7.35;71.30;102186.63;5018110;28;20025;-89
2022/03/19 07:50:31;;;;;;;8.55;4.18;;;;;;;7.47;71.35;102187.94;5001956;28;20487;-89
2022/03/19 07:52:57;;;;;;;5.85;3.80;;;;;;;7.52;71.76;102183.28;5016040;28;20449;-89
2022/03/19 07:55:24;;;;;;;6.30;4.07;;;;;;;7.50;70.86;102186.00;5001899;28;20073;-89
2022/03/19 07:57:49;;;;;;;8.23;3.85;;;;;;;7.54;71.42;102176.97;5001038;28;20096;-88
2022/03/19 08:00:14;;;;;;;7.15;3.45;;;;;;;7.61;71.59;102176.75;5000075;28;20038;-89
2022/03/19 08:02:40;;;;;;;7.90;3.90;;;;;;;7.71;71.52;102170.09;4999354;28;20026;-89
2022/03/19 08:05:06;;;;;;;8.25;4.10;;;;;;;7.71;71.56;102165.63;5000494;28;20039;-89
2022/03/19 08:07:32;;;;;;;8.68;3.67;;;;;;;7.74;71.46;102172.63;5000307;28;20855;-89
2022/03/19 08:09:57;;;;;;;8.68;4.00;;;;;;;7.70;71.14;102166.56;5017670;28;20060;-89
2022/03/19 08:12:24;;;;;;;5.63;3.45;;;;;;;7.71;71.49;102172.75;5018338;28;20040;-89
2022/03/19 08:14:49;;;;;;;7.03;3.50;;;;;;;7.70;70.88;102171.88;5002038;28;20021;-89
2022/03/19 08:17:14;;;;;;;6.68;3.63;;;;;;;7.83;71.23;102174.88;5016849;28;20543;-89
2022/03/19 08:19:41;;;;;;;7.57;3.72;;;;;;;7.91;71.22;102170.09;5000473;28;20033;-89
2022/03/19 08:22:08;;;;;;;7.28;3.47;;;;;;;7.97;71.14;102176.94;5001890;28;20037;-87
2022/03/19 08:24:33;;;;;;;6.97;3.45;;;;;;;7.97;70.18;102175.16;5000888;28;20061;-90
2022/03/19 08:26:58;;;;;;;6.70;3.65;;;;;;;7.88;70.16;102170.22;5001145;28;20053;-91
2022/03/19 08:29:25;;;;;;;7.72;3.60;;;;;;;7.94;70.44;102164.63;5000050;28;20030;-88
2022/03/19 08:31:51;;;;;;;8.13;3.30;;;;;;;8.04;70.88;102165.09;5000431;28;20096;-88
2022/03/19 08:34:16;;;;;;;7.13;3.40;;;;;;;8.03;70.05;102172.22;4999973;28;20993;-88
2022/03/19 08:36:42;;;;;;;6.90;3.65;;;;;;;8.03;70.31;102180.22;5000071;28;20029;-88
2022/03/19 08:41:51;;;;;;;6.90;3.33;;;;;;;8.16;69.70;102169.91;5015453;28;20095;-88
2022/03/19 08:44:16;;;;;;;9.32;4.22;;;;;;;8.26;69.79;102173.91;5017361;28;20045;-88
2022/03/19 08:46:42;;;;;;;6.47;3.60;;;;;;;8.17;70.15;102177.84;4998012;28;20044;-88
2022/03/19 08:49:07;;;;;;;7.90;3.65;;;;;;;8.24;69.80;102175.75;5003077;28;20037;-88
2022/03/19 08:51:41;;;;;;;6.75;3.33;;;;;;;8.26;69.64;102171.22;4998559;28;20033;-87
2022/03/19 08:54:09;;;;;;;9.23;3.80;;;;;;;8.24;69.19;102166.91;5001666;28;20073;-88
2022/03/19 08:56:35;;;;;;;7.47;3.70;;;;;;;8.16;68.97;102165.44;5013565;28;20780;-87
2022/03/19 08:59:01;;;;;;;6.47;3.70;;;;;;;8.09;68.77;102161.31;5012336;28;20064;-87
2022/03/19 09:01:27;;;;;;;5.72;3.25;;;;;;;8.19;70.20;102159.13;5015992;28;20053;-88
2022/03/19 09:03:52;;;;;;;7.57;3.53;;;;;;;8.18;69.36;102165.38;5015847;28;20036;-88
2022/03/19 09:06:18;;;;;;;7.78;3.22;;;;;;;8.19;69.12;102161.78;4998849;28;20090;-87
2022/03/19 09:08:44;;;;;;;8.27;3.72;;;;;;;8.24;68.47;102154.44;5000193;28;20121;-88
2022/03/19 09:11:11;;;;;;;6.18;3.65;;;;;;;8.31;69.10;102149.69;5006327;28;20120;-87
2022/03/19 09:13:36;;;;;;;5.90;3.20;;;;;;;8.39;69.17;102153.78;4997867;28;20029;-87
2022/03/19 09:16:03;;;;;;;6.93;3.38;;;;;;;8.32;68.44;102156.75;4999313;28;20029;-87
2022/03/19 09:18:28;;;;;;;4.80;3.42;;;;;;;8.25;67.57;102140.19;4998059;28;20021;-88
2022/03/19 09:20:54;;;;;;;8.25;3.75;;;;;;;8.29;68.19;102147.09;4997844;28;20384;-87
2022/03/19 09:23:19;;;;;;;7.15;3.50;;;;;;;8.28;67.54;102148.03;5001247;28;20113;-87
2022/03/19 09:25:44;;;;;;;6.57;3.38;;;;;;;8.39;68.07;102148.44;4999523;28;20057;-87
2022/03/19 09:28:10;;;;;;;6.75;3.53;;;;;;;8.36;67.27;102145.06;4999969;28;20025;-87
2022/03/19 09:30:35;;;;;;;7.90;3.90;;;;;;;8.32;67.31;102138.09;4999371;28;20056;-87
2022/03/19 09:33:00;;;;;;;7.75;3.63;;;;;;;8.35;66.42;102135.31;4994284;28;20387;-87
2022/03/19 09:35:26;;;;;;;7.35;3.90;;;;;;;8.35;67.05;102141.53;4996533;28;20104;-88
2022/03/19 09:37:51;;;;;;;8.68;3.88;;;;;;;8.40;67.05;102134.19;4996800;28;20045;-87
2022/03/19 09:40:18;;;;;;;7.50;4.07;;;;;;;8.44;67.19;102133.09;4997817;28;20022;-87
2022/03/19 09:42:53;;;;;;;6.90;4.30;;;;;;;8.47;66.72;102124.97;5013276;28;20044;-87
2022/03/19 09:45:20;;;;;;;5.70;3.42;;;;;;;8.51;66.61;102131.03;5014878;28;20034;-87
2022/03/19 09:47:46;;;;;;;7.93;3.90;;;;;;;8.49;66.06;102117.75;4996061;28;20026;-87
2022/03/19 09:50:11;;;;;;;5.57;3.60;;;;;;;8.53;65.73;102113.19;5013306;28;20029;-88
2022/03/19 09:52:37;;;;;;;8.48;3.80;;;;;;;8.56;66.69;102102.38;4999059;28;20026;-87
2022/03/19 09:55:03;;;;;;;7.90;3.95;;;;;;;8.69;67.13;102116.84;5015613;28;20061;-88
2022/03/19 09:57:28;;;;;;;6.93;3.90;;;;;;;8.72;66.99;102114.03;4998180;28;20116;-87
2022/03/19 09:59:54;;;;;;;6.00;4.00;;;;;;;8.70;66.07;102105.25;4996932;28;20356;-87
2022/03/19 10:02:19;;;;;;;6.55;3.55;;;;;;;8.73;65.93;102101.56;5014352;28;20038;-87
2022/03/19 10:04:44;;;;;;;9.27;3.88;;;;;;;8.69;66.24;102091.97;4997975;28;20029;-87
2022/03/19 10:09:56;;;;;;;7.40;3.55;;;;;;;8.67;64.65;102097.38;5012904;28;20578;-88
2022/03/19 10:12:30;;;;;;;7.65;3.92;;;;;;;8.67;64.99;102088.53;5014831;28;20036;-87
2022/03/19 10:14:57;;;;;;;9.32;4.10;;;;;;;8.72;64.33;102084.69;4997902;28;20034;-87
2022/03/19 10:17:32;;;;;;;6.68;4.05;;;;;;;8.74;62.78;102080.16;4996638;28;20907;-86
2022/03/19 10:20:06;;;;;;;6.68;3.45;;;;;;;8.78;63.32;102080.88;5032617;28;20387;-87
2022/03/19 10:22:31;;;;;;;9.23;3.70;;;;;;;8.78;63.80;102079.06;5000203;28;20037;-87
2022/03/19 10:25:11;;;;;;;6.55;3.67;;;;;;;8.88;64.30;102070.59;5001493;28;20755;-87
2022/03/19 10:27:38;;;;;;;5.35;3.70;;;;;;;8.90;64.62;102064.25;5017218;28;20029;-88
2022/03/19 10:30:05;;;;;;;8.60;3.90;;;;;;;8.91;63.36;102070.47;5027008;28;20088;-88
2022/03/19 10:32:30;;;;;;;8.45;4.10;;;;;;;8.98;63.94;102071.88;5018302;28;21135;-87
2022/03/19 10:34:56;;;;;;;5.30;3.40;;;;;;;9.00;63.28;102073.56;5001922;28;20033;-87
2022/03/19 10:37:35;;;;;;;6.00;3.50;;;;;;;8.92;62.59;102062.38;5002592;28;20476;-87
2022/03/19 10:40:04;;;;;;;7.78;3.70;;;;;;;8.91;61.96;102059.78;5010789;28;20084;-87
2022/03/19 10:42:35;;;;;;;6.95;3.65;;;;;;;9.03;62.82;102043.19;5019101;28;20426;-85
2022/03/19 10:45:00;;;;;;;5.88;3.42;;;;;;;9.07;63.57;102042.09;5003511;28;20033;-88
2022/03/19 10:47:26;;;;;;;6.03;3.17;;;;;;;9.04;62.70;102039.59;4999493;28;20048;-87
2022/03/19 10:49:51;;;;;;;4.68;3.65;;;;;;;9.03;62.38;102037.84;5019977;28;20033;-87
2022/03/19 10:52:21;;;;;;;8.35;3.50;;;;;;;9.06;63.05;102033.22;5000364;28;20037;-87
2022/03/19 10:54:47;;;;;;;7.22;3.58;;;;;;;9.09;62.31;102038.41;5002556;28;20045;-87
2022/03/19 10:57:13;;;;;;;5.80;3.80;;;;;;;9.06;61.88;102025.22;5018144;28;20105;-87
2022/03/19 10:59:38;;;;;;;7.45;3.65;;;;;;;9.04;61.94;102020.91;4999875;28;20034;-87
2022/03/19 11:02:04;;;;;;;6.80;3.80;;;;;;;9.06;62.63;102017.22;5000867;28;20033;-87
2022/03/19 11:04:30;;;;;;;6.95;3.70;;;;;;;9.09;62.89;102011.72;5001441;28;20539;-87
2022/03/19 11:06:58;;;;;;;7.75;3.60;;;;;;;9.18;62.46;102005.06;5017364;28;20022;-87
2022/03/19 11:09:26;;;;;;;5.18;3.38;;;;;;;9.22;59.93;102003.94;5016303;28;20126;-87
2022/03/19 11:12:00;;;;;;;7.53;3.83;;;;;;;9.29;59.47;102002.69;5001231;28;20025;-87
2022/03/19 11:14:30;;;;;;;7.13;3.55;;;;;;;9.31;60.34;102005.28;4998155;28;20410;-87
2022/03/19 11:17:25;;;;;;;7.95;4.00;;;;;;;9.36;58.62;101993.41;5000279;28;20036;-87
2022/03/19 11:19:52;;;;;;;6.38;3.70;;;;;;;9.35;59.46;101990.81;5016122;28;20509;-86
2022/03/19 11:22:18;;;;;;;4.43;3.60;;;;;;;9.34;59.01;101995.31;4999673;28;20084;-87
2022/03/19 11:24:48;;;;;;;5.15;3.50;;;;;;;9.34;59.85;102000.63;5008600;28;20057;-87
2022/03/19 11:27:15;;;;;;;6.53;3.75;;;;;;;9.44;58.31;101995.69;5016285;28;20052;-85
2022/03/19 11:29:40;;;;;;;6.30;3.67;;;;;;;9.44;59.30;101993.88;5017118;28;20487;-87
2022/03/19 11:32:06;;;;;;;8.07;3.70;;;;;;;9.39;59.64;101979.03;5000322;28;20044;-87
2022/03/19 11:34:46;;;;;;;6.07;4.28;;;;;;;9.44;59.09;101983.19;5024684;28;20034;-87
2022/03/19 11:37:12;;;;;;;6.97;3.92;;;;;;;9.41;59.95;101983.34;5019123;28;20669;-87
2022/03/19 11:39:38;;;;;;;8.60;4.20;;;;;;;9.43;60.31;101978.81;5001700;28;20041;-87
2022/03/19 11:42:07;;;;;;;7.43;4.10;;;;;;;9.51;59.04;101972.22;5008591;28;20040;-87
2022/03/19 11:44:33;;;;;;;6.53;3.85;;;;;;;9.51;59.67;101977.56;5017176;28;20030;-87
2022/03/19 11:47:00;;;;;;;7.43;3.70;;;;;;;9.53;59.87;101965.00;5000065;28;20790;-87